sensor_id;sensor_type;location;lat;lon;timestamp;P1;P2;P0
31330;PMS5003;34067;39.548;-76.088;2023-11-22T00:01:48;1;1;
31330;PMS5003;34067;39.548;-76.088;2023-11-22T00:04:16;1;1;
31330;PMS5003;34067;39.548;-76.088;2023-11-22T00:06:45;3;2;
31330;PMS5003;34067;39.548;-76.088;2023-11-22T00:09:13;3;1;
31330;PMS5003;34067;39.548;-76.088;2023-11-22T00:11:41;1;1;
31330;PMS5003;34067;39.548;-76.088;2023-11-22T00:14:09;1;1;
31330;PMS5003;34067;39.548;-76.088;2023-11-22T00:16:37;2;2;
31330;PMS5003;34067;39.548;-76.088;2023-11-22T00:19:05;2;2;
31330;PMS5003;34067;39.548;-76.088;2023-11-22T00:21:33;2;2;
31330;PMS5003;34067;39.548;-76.088;2023-11-22T00:24:01;5;5;
31330;PMS5003;34067;39.548;-76.088;2023-11-22T00:26:29;6;6;
31330;PMS5003;34067;39.548;-76.088;2023-11-22T00:28:57;13;12;
31330;PMS5003;34067;39.548;-76.088;2023-11-22T00:31:25;4;3;
31330;PMS5003;34067;39.548;-76.088;2023-11-22T00:33:54;5;3;
31330;PMS5003;34067;39.548;-76.088;2023-11-22T00:36:22;2;2;
31330;PMS5003;34067;39.548;-76.088;2023-11-22T00:38:50;0;0;
31330;PMS5003;34067;39.548;-76.088;2023-11-22T00:41:18;2;2;
31330;PMS5003;34067;39.548;-76.088;2023-11-22T00:43:46;1;1;
31330;PMS5003;34067;39.548;-76.088;2023-11-22T00:46:14;2;2;
31330;PMS5003;34067;39.548;-76.088;2023-11-22T00:48:42;2;2;
31330;PMS5003;34067;39.548;-76.088;2023-11-22T00:51:10;1;1;
31330;PMS5003;34067;39.548;-76.088;2023-11-22T00:53:38;3;2;
31330;PMS5003;34067;39.548;-76.088;2023-11-22T00:56:06;1;1;
31330;PMS5003;34067;39.548;-76.088;2023-11-22T00:58:34;3;2;
31330;PMS5003;34067;39.548;-76.088;2023-11-22T01:01:02;1;1;
31330;PMS5003;34067;39.548;-76.088;2023-11-22T01:03:31;2;2;
31330;PMS5003;34067;39.548;-76.088;2023-11-22T01:05:58;1;1;
31330;PMS5003;34067;39.548;-76.088;2023-11-22T01:08:26;2;2;
31330;PMS5003;34067;39.548;-76.088;2023-11-22T01:10:54;1;1;
31330;PMS5003;34067;39.548;-76.088;2023-11-22T01:13:22;3;3;
31330;PMS5003;34067;39.548;-76.088;2023-11-22T01:15:51;1;1;
31330;PMS5003;34067;39.548;-76.088;2023-11-22T01:18:18;1;1;
31330;PMS5003;34067;39.548;-76.088;2023-11-22T01:20:47;1;1;
31330;PMS5003;34067;39.548;-76.088;2023-11-22T01:23:15;2;1;
31330;PMS5003;34067;39.548;-76.088;2023-11-22T01:25:43;1;1;
31330;PMS5003;34067;39.548;-76.088;2023-11-22T01:28:11;1;1;
31330;PMS5003;34067;39.548;-76.088;2023-11-22T01:30:39;1;1;
31330;PMS5003;34067;39.548;-76.088;2023-11-22T01:33:07;1;1;
31330;PMS5003;34067;39.548;-76.088;2023-11-22T01:35:35;1;1;
31330;PMS5003;34067;39.548;-76.088;2023-11-22T01:38:03;1;1;
31330;PMS5003;34067;39.548;-76.088;2023-11-22T01:40:31;2;2;
31330;PMS5003;34067;39.548;-76.088;2023-11-22T01:42:59;1;0;
31330;PMS5003;34067;39.548;-76.088;2023-11-22T01:45:27;2;2;
31330;PMS5003;34067;39.548;-76.088;2023-11-22T01:47:55;0;0;
31330;PMS5003;34067;39.548;-76.088;2023-11-22T01:50:23;1;1;
31330;PMS5003;34067;39.548;-76.088;2023-11-22T01:52:52;1;1;
31330;PMS5003;34067;39.548;-76.088;2023-11-22T01:55:20;0;0;
31330;PMS5003;34067;39.548;-76.088;2023-11-22T01:57:48;1;1;
31330;PMS5003;34067;39.548;-76.088;2023-11-22T02:00:17;0;0;
31330;PMS5003;34067;39.548;-76.088;2023-11-22T02:02:46;1;1;
31330;PMS5003;34067;39.548;-76.088;2023-11-22T02:05:15;1;0;
31330;PMS5003;34067;39.548;-76.088;2023-11-22T02:07:42;1;1;
31330;PMS5003;34067;39.548;-76.088;2023-11-22T02:10:11;1;1;
31330;PMS5003;34067;39.548;-76.088;2023-11-22T02:12:39;1;0;
31330;PMS5003;34067;39.548;-76.088;2023-11-22T02:15:08;1;0;
31330;PMS5003;34067;39.548;-76.088;2023-11-22T02:17:36;1;1;
31330;PMS5003;34067;39.548;-76.088;2023-11-22T02:20:05;1;1;
31330;PMS5003;34067;39.548;-76.088;2023-11-22T02:22:33;0;0;
31330;PMS5003;34067;39.548;-76.088;2023-11-22T02:25:09;0;0;
31330;PMS5003;34067;39.548;-76.088;2023-11-22T02:27:36;2;1;
31330;PMS5003;34067;39.548;-76.088;2023-11-22T02:30:05;1;1;
31330;PMS5003;34067;39.548;-76.088;2023-11-22T02:32:33;1;1;
31330;PMS5003;34067;39.548;-76.088;2023-11-22T02:35:02;2;2;
31330;PMS5003;34067;39.548;-76.088;2023-11-22T02:37:30;1;1;
31330;PMS5003;34067;39.548;-76.088;2023-11-22T02:39:58;0;0;
31330;PMS5003;34067;39.548;-76.088;2023-11-22T02:42:32;0;0;
31330;PMS5003;34067;39.548;-76.088;2023-11-22T02:45:01;2;1;
31330;PMS5003;34067;39.548;-76.088;2023-11-22T02:47:29;1;1;
31330;PMS5003;34067;39.548;-76.088;2023-11-22T02:49:57;1;1;
31330;PMS5003;34067;39.548;-76.088;2023-11-22T02:52:25;1;1;
31330;PMS5003;34067;39.548;-76.088;2023-11-22T02:54:53;3;2;
31330;PMS5003;34067;39.548;-76.088;2023-11-22T02:57:21;1;1;
31330;PMS5003;34067;39.548;-76.088;2023-11-22T02:59:49;1;0;
31330;PMS5003;34067;39.548;-76.088;2023-11-22T03:02:17;1;1;
31330;PMS5003;34067;39.548;-76.088;2023-11-22T03:04:45;2;2;
31330;PMS5003;34067;39.548;-76.088;2023-11-22T03:07:13;2;1;
31330;PMS5003;34067;39.548;-76.088;2023-11-22T03:09:41;1;1;
31330;PMS5003;34067;39.548;-76.088;2023-11-22T03:12:09;1;1;
31330;PMS5003;34067;39.548;-76.088;2023-11-22T03:14:37;0;0;
31330;PMS5003;34067;39.548;-76.088;2023-11-22T03:17:05;1;1;
31330;PMS5003;34067;39.548;-76.088;2023-11-22T03:19:33;0;0;
31330;PMS5003;34067;39.548;-76.088;2023-11-22T03:22:01;1;1;
31330;PMS5003;34067;39.548;-76.088;2023-11-22T03:24:30;2;2;
31330;PMS5003;34067;39.548;-76.088;2023-11-22T03:26:58;1;1;
31330;PMS5003;34067;39.548;-76.088;2023-11-22T03:29:26;2;2;
31330;PMS5003;34067;39.548;-76.088;2023-11-22T03:31:54;4;3;
31330;PMS5003;34067;39.548;-76.088;2023-11-22T03:34:22;0;0;
31330;PMS5003;34067;39.548;-76.088;2023-11-22T03:36:50;2;1;
31330;PMS5003;34067;39.548;-76.088;2023-11-22T03:39:18;1;1;
31330;PMS5003;34067;39.548;-76.088;2023-11-22T03:41:46;1;1;
31330;PMS5003;34067;39.548;-76.088;2023-11-22T03:44:14;2;1;
31330;PMS5003;34067;39.548;-76.088;2023-11-22T03:46:42;3;3;
31330;PMS5003;34067;39.548;-76.088;2023-11-22T03:49:10;2;1;
31330;PMS5003;34067;39.548;-76.088;2023-11-22T03:51:38;3;3;
31330;PMS5003;34067;39.548;-76.088;2023-11-22T03:54:09;2;2;
31330;PMS5003;34067;39.548;-76.088;2023-11-22T03:56:37;4;3;
31330;PMS5003;34067;39.548;-76.088;2023-11-22T03:59:05;1;1;
31330;PMS5003;34067;39.548;-76.088;2023-11-22T04:01:33;2;2;
31330;PMS5003;34067;39.548;-76.088;2023-11-22T04:04:01;1;1;
31330;PMS5003;34067;39.548;-76.088;2023-11-22T04:06:29;1;1;
31330;PMS5003;34067;39.548;-76.088;2023-11-22T04:08:58;1;1;
31330;PMS5003;34067;39.548;-76.088;2023-11-22T04:11:26;0;0;
31330;PMS5003;34067;39.548;-76.088;2023-11-22T04:13:54;0;0;
31330;PMS5003;34067;39.548;-76.088;2023-11-22T04:16:22;3;3;
31330;PMS5003;34067;39.548;-76.088;2023-11-22T04:18:50;3;3;
31330;PMS5003;34067;39.548;-76.088;2023-11-22T04:21:18;3;3;
31330;PMS5003;34067;39.548;-76.088;2023-11-22T04:23:46;4;3;
31330;PMS5003;34067;39.548;-76.088;2023-11-22T04:26:14;0;0;
31330;PMS5003;34067;39.548;-76.088;2023-11-22T04:28:42;1;1;
31330;PMS5003;34067;39.548;-76.088;2023-11-22T04:31:10;0;0;
31330;PMS5003;34067;39.548;-76.088;2023-11-22T04:33:38;1;0;
31330;PMS5003;34067;39.548;-76.088;2023-11-22T04:36:06;0;0;
31330;PMS5003;34067;39.548;-76.088;2023-11-22T04:38:34;0;0;
31330;PMS5003;34067;39.548;-76.088;2023-11-22T04:41:02;0;0;
31330;PMS5003;34067;39.548;-76.088;2023-11-22T04:43:30;0;0;
31330;PMS5003;34067;39.548;-76.088;2023-11-22T04:45:58;0;0;
31330;PMS5003;34067;39.548;-76.088;2023-11-22T04:48:26;2;0;
31330;PMS5003;34067;39.548;-76.088;2023-11-22T04:50:54;0;0;
31330;PMS5003;34067;39.548;-76.088;2023-11-22T04:53:22;0;0;
31330;PMS5003;34067;39.548;-76.088;2023-11-22T04:55:50;0;0;
31330;PMS5003;34067;39.548;-76.088;2023-11-22T04:58:18;0;0;
31330;PMS5003;34067;39.548;-76.088;2023-11-22T05:00:46;0;0;
31330;PMS5003;34067;39.548;-76.088;2023-11-22T05:03:15;0;0;
31330;PMS5003;34067;39.548;-76.088;2023-11-22T05:05:42;0;0;
31330;PMS5003;34067;39.548;-76.088;2023-11-22T05:08:10;0;0;
31330;PMS5003;34067;39.548;-76.088;2023-11-22T05:10:39;0;0;
31330;PMS5003;34067;39.548;-76.088;2023-11-22T05:13:06;0;0;
31330;PMS5003;34067;39.548;-76.088;2023-11-22T05:15:34;0;0;
31330;PMS5003;34067;39.548;-76.088;2023-11-22T05:18:03;0;0;
31330;PMS5003;34067;39.548;-76.088;2023-11-22T05:20:30;0;0;
31330;PMS5003;34067;39.548;-76.088;2023-11-22T05:22:59;0;0;
31330;PMS5003;34067;39.548;-76.088;2023-11-22T05:25:27;1;0;
31330;PMS5003;34067;39.548;-76.088;2023-11-22T05:27:55;0;0;
31330;PMS5003;34067;39.548;-76.088;2023-11-22T05:30:23;0;0;
31330;PMS5003;34067;39.548;-76.088;2023-11-22T05:32:51;0;0;
31330;PMS5003;34067;39.548;-76.088;2023-11-22T05:35:19;0;0;
31330;PMS5003;34067;39.548;-76.088;2023-11-22T05:37:47;0;0;
31330;PMS5003;34067;39.548;-76.088;2023-11-22T05:40:15;0;0;
31330;PMS5003;34067;39.548;-76.088;2023-11-22T05:42:43;0;0;
31330;PMS5003;34067;39.548;-76.088;2023-11-22T05:45:12;0;0;
31330;PMS5003;34067;39.548;-76.088;2023-11-22T05:47:40;0;0;
31330;PMS5003;34067;39.548;-76.088;2023-11-22T05:50:08;0;0;
31330;PMS5003;34067;39.548;-76.088;2023-11-22T05:52:36;0;0;
31330;PMS5003;34067;39.548;-76.088;2023-11-22T05:55:04;1;0;
31330;PMS5003;34067;39.548;-76.088;2023-11-22T05:57:33;0;0;
31330;PMS5003;34067;39.548;-76.088;2023-11-22T06:00:01;0;0;
31330;PMS5003;34067;39.548;-76.088;2023-11-22T06:03:13;0;0;
31330;PMS5003;34067;39.548;-76.088;2023-11-22T06:05:41;0;0;
31330;PMS5003;34067;39.548;-76.088;2023-11-22T06:08:09;0;0;
31330;PMS5003;34067;39.548;-76.088;2023-11-22T06:10:37;0;0;
31330;PMS5003;34067;39.548;-76.088;2023-11-22T06:13:06;0;0;
31330;PMS5003;34067;39.548;-76.088;2023-11-22T06:15:33;0;0;
31330;PMS5003;34067;39.548;-76.088;2023-11-22T06:18:01;0;0;
31330;PMS5003;34067;39.548;-76.088;2023-11-22T06:20:29;0;0;
31330;PMS5003;34067;39.548;-76.088;2023-11-22T06:22:57;0;0;
31330;PMS5003;34067;39.548;-76.088;2023-11-22T06:25:25;0;0;
31330;PMS5003;34067;39.548;-76.088;2023-11-22T06:27:54;0;0;
31330;PMS5003;34067;39.548;-76.088;2023-11-22T06:30:22;0;0;
31330;PMS5003;34067;39.548;-76.088;2023-11-22T06:32:50;0;0;
31330;PMS5003;34067;39.548;-76.088;2023-11-22T06:35:18;0;0;
31330;PMS5003;34067;39.548;-76.088;2023-11-22T06:37:46;0;0;
31330;PMS5003;34067;39.548;-76.088;2023-11-22T06:40:14;0;0;
31330;PMS5003;34067;39.548;-76.088;2023-11-22T06:42:42;0;0;
31330;PMS5003;34067;39.548;-76.088;2023-11-22T06:45:10;0;0;
31330;PMS5003;34067;39.548;-76.088;2023-11-22T06:47:38;0;0;
31330;PMS5003;34067;39.548;-76.088;2023-11-22T06:50:06;0;0;
31330;PMS5003;34067;39.548;-76.088;2023-11-22T06:52:34;0;0;
31330;PMS5003;34067;39.548;-76.088;2023-11-22T06:55:02;0;0;
31330;PMS5003;34067;39.548;-76.088;2023-11-22T06:57:30;0;0;
31330;PMS5003;34067;39.548;-76.088;2023-11-22T06:59:58;0;0;
31330;PMS5003;34067;39.548;-76.088;2023-11-22T07:02:26;0;0;
31330;PMS5003;34067;39.548;-76.088;2023-11-22T07:04:54;0;0;
31330;PMS5003;34067;39.548;-76.088;2023-11-22T07:07:23;0;0;
31330;PMS5003;34067;39.548;-76.088;2023-11-22T07:09:50;0;0;
31330;PMS5003;34067;39.548;-76.088;2023-11-22T07:12:18;0;0;
31330;PMS5003;34067;39.548;-76.088;2023-11-22T07:14:47;0;0;
31330;PMS5003;34067;39.548;-76.088;2023-11-22T07:17:14;0;0;
31330;PMS5003;34067;39.548;-76.088;2023-11-22T07:19:42;0;0;
31330;PMS5003;34067;39.548;-76.088;2023-11-22T07:22:11;0;0;
31330;PMS5003;34067;39.548;-76.088;2023-11-22T07:24:39;0;0;
31330;PMS5003;34067;39.548;-76.088;2023-11-22T07:27:07;0;0;
31330;PMS5003;34067;39.548;-76.088;2023-11-22T07:29:35;0;0;
31330;PMS5003;34067;39.548;-76.088;2023-11-22T07:32:03;0;0;
31330;PMS5003;34067;39.548;-76.088;2023-11-22T07:34:32;0;0;
31330;PMS5003;34067;39.548;-76.088;2023-11-22T07:37:00;1;0;
31330;PMS5003;34067;39.548;-76.088;2023-11-22T07:39:28;0;0;
31330;PMS5003;34067;39.548;-76.088;2023-11-22T07:41:56;0;0;
31330;PMS5003;34067;39.548;-76.088;2023-11-22T07:44:24;0;0;
31330;PMS5003;34067;39.548;-76.088;2023-11-22T07:46:52;0;0;
31330;PMS5003;34067;39.548;-76.088;2023-11-22T07:49:20;0;0;
31330;PMS5003;34067;39.548;-76.088;2023-11-22T07:51:48;1;1;
31330;PMS5003;34067;39.548;-76.088;2023-11-22T07:54:16;1;1;
31330;PMS5003;34067;39.548;-76.088;2023-11-22T07:56:44;0;0;
31330;PMS5003;34067;39.548;-76.088;2023-11-22T07:59:12;0;0;
31330;PMS5003;34067;39.548;-76.088;2023-11-22T08:01:42;0;0;
31330;PMS5003;34067;39.548;-76.088;2023-11-22T08:04:10;0;0;
31330;PMS5003;34067;39.548;-76.088;2023-11-22T08:06:38;0;0;
31330;PMS5003;34067;39.548;-76.088;2023-11-22T08:09:06;0;0;
31330;PMS5003;34067;39.548;-76.088;2023-11-22T08:11:34;0;0;
31330;PMS5003;34067;39.548;-76.088;2023-11-22T08:14:02;0;0;
31330;PMS5003;34067;39.548;-76.088;2023-11-22T08:16:30;0;0;
31330;PMS5003;34067;39.548;-76.088;2023-11-22T08:18:58;0;0;
31330;PMS5003;34067;39.548;-76.088;2023-11-22T08:21:26;1;1;
31330;PMS5003;34067;39.548;-76.088;2023-11-22T08:23:54;0;0;
31330;PMS5003;34067;39.548;-76.088;2023-11-22T08:26:22;1;1;
31330;PMS5003;34067;39.548;-76.088;2023-11-22T08:28:50;0;0;
31330;PMS5003;34067;39.548;-76.088;2023-11-22T08:31:18;3;3;
31330;PMS5003;34067;39.548;-76.088;2023-11-22T08:33:46;1;1;
31330;PMS5003;34067;39.548;-76.088;2023-11-22T08:36:14;4;4;
31330;PMS5003;34067;39.548;-76.088;2023-11-22T08:38:42;3;3;
31330;PMS5003;34067;39.548;-76.088;2023-11-22T08:41:11;3;3;
31330;PMS5003;34067;39.548;-76.088;2023-11-22T08:43:39;3;3;
31330;PMS5003;34067;39.548;-76.088;2023-11-22T08:46:07;4;4;
31330;PMS5003;34067;39.548;-76.088;2023-11-22T08:48:35;4;4;
31330;PMS5003;34067;39.548;-76.088;2023-11-22T08:51:03;3;3;
31330;PMS5003;34067;39.548;-76.088;2023-11-22T08:53:31;5;5;
31330;PMS5003;34067;39.548;-76.088;2023-11-22T08:55:59;4;4;
31330;PMS5003;34067;39.548;-76.088;2023-11-22T08:58:27;5;5;
31330;PMS5003;34067;39.548;-76.088;2023-11-22T09:00:55;4;3;
31330;PMS5003;34067;39.548;-76.088;2023-11-22T09:03:23;4;4;
31330;PMS5003;34067;39.548;-76.088;2023-11-22T09:05:51;4;4;
31330;PMS5003;34067;39.548;-76.088;2023-11-22T09:08:20;4;3;
31330;PMS5003;34067;39.548;-76.088;2023-11-22T09:10:48;8;7;
31330;PMS5003;34067;39.548;-76.088;2023-11-22T09:13:16;38;38;
31330;PMS5003;34067;39.548;-76.088;2023-11-22T09:15:44;36;35;
31330;PMS5003;34067;39.548;-76.088;2023-11-22T09:18:12;18;18;
31330;PMS5003;34067;39.548;-76.088;2023-11-22T09:20:41;12;11;
31330;PMS5003;34067;39.548;-76.088;2023-11-22T09:23:09;12;12;
31330;PMS5003;34067;39.548;-76.088;2023-11-22T09:25:37;11;11;
31330;PMS5003;34067;39.548;-76.088;2023-11-22T09:28:06;11;11;
31330;PMS5003;34067;39.548;-76.088;2023-11-22T09:30:34;12;11;
31330;PMS5003;34067;39.548;-76.088;2023-11-22T09:33:02;4;3;
31330;PMS5003;34067;39.548;-76.088;2023-11-22T09:35:31;5;4;
31330;PMS5003;34067;39.548;-76.088;2023-11-22T09:38:00;3;3;
31330;PMS5003;34067;39.548;-76.088;2023-11-22T09:40:29;4;4;
31330;PMS5003;34067;39.548;-76.088;2023-11-22T09:42:57;3;3;
31330;PMS5003;34067;39.548;-76.088;2023-11-22T09:45:25;3;3;
31330;PMS5003;34067;39.548;-76.088;2023-11-22T09:47:53;5;4;
31330;PMS5003;34067;39.548;-76.088;2023-11-22T09:50:23;3;3;
31330;PMS5003;34067;39.548;-76.088;2023-11-22T09:53:02;5;5;
31330;PMS5003;34067;39.548;-76.088;2023-11-22T09:55:37;4;3;
31330;PMS5003;34067;39.548;-76.088;2023-11-22T09:58:07;6;5;
31330;PMS5003;34067;39.548;-76.088;2023-11-22T10:00:37;5;4;
31330;PMS5003;34067;39.548;-76.088;2023-11-22T10:03:06;4;4;
31330;PMS5003;34067;39.548;-76.088;2023-11-22T10:05:34;3;2;
31330;PMS5003;34067;39.548;-76.088;2023-11-22T10:08:02;5;4;
31330;PMS5003;34067;39.548;-76.088;2023-11-22T10:10:31;3;2;
31330;PMS5003;34067;39.548;-76.088;2023-11-22T10:13:01;3;2;
31330;PMS5003;34067;39.548;-76.088;2023-11-22T10:15:29;3;3;
31330;PMS5003;34067;39.548;-76.088;2023-11-22T10:17:58;2;2;
31330;PMS5003;34067;39.548;-76.088;2023-11-22T10:20:36;4;3;
31330;PMS5003;34067;39.548;-76.088;2023-11-22T10:23:08;3;3;
31330;PMS5003;34067;39.548;-76.088;2023-11-22T10:25:36;3;3;
31330;PMS5003;34067;39.548;-76.088;2023-11-22T10:28:09;4;3;
31330;PMS5003;34067;39.548;-76.088;2023-11-22T10:30:37;4;4;
31330;PMS5003;34067;39.548;-76.088;2023-11-22T10:33:05;3;2;
31330;PMS5003;34067;39.548;-76.088;2023-11-22T10:35:33;6;5;
31330;PMS5003;34067;39.548;-76.088;2023-11-22T10:38:02;4;4;
31330;PMS5003;34067;39.548;-76.088;2023-11-22T10:40:30;4;4;
31330;PMS5003;34067;39.548;-76.088;2023-11-22T10:42:58;3;3;
31330;PMS5003;34067;39.548;-76.088;2023-11-22T10:45:26;3;2;
31330;PMS5003;34067;39.548;-76.088;2023-11-22T10:47:56;7;5;
31330;PMS5003;34067;39.548;-76.088;2023-11-22T10:50:24;5;5;
31330;PMS5003;34067;39.548;-76.088;2023-11-22T10:52:52;6;6;
31330;PMS5003;34067;39.548;-76.088;2023-11-22T10:55:25;7;6;
31330;PMS5003;34067;39.548;-76.088;2023-11-22T10:58:00;5;5;
31330;PMS5003;34067;39.548;-76.088;2023-11-22T11:00:31;6;5;
31330;PMS5003;34067;39.548;-76.088;2023-11-22T11:03:01;8;7;
31330;PMS5003;34067;39.548;-76.088;2023-11-22T11:05:36;6;6;
31330;PMS5003;34067;39.548;-76.088;2023-11-22T11:08:09;5;5;
31330;PMS5003;34067;39.548;-76.088;2023-11-22T11:10:40;4;4;
31330;PMS5003;34067;39.548;-76.088;2023-11-22T11:13:10;6;6;
31330;PMS5003;34067;39.548;-76.088;2023-11-22T11:15:38;5;4;
31330;PMS5003;34067;39.548;-76.088;2023-11-22T11:18:07;4;4;
31330;PMS5003;34067;39.548;-76.088;2023-11-22T11:20:44;7;7;
31330;PMS5003;34067;39.548;-76.088;2023-11-22T11:23:15;6;5;
31330;PMS5003;34067;39.548;-76.088;2023-11-22T11:25:43;7;5;
31330;PMS5003;34067;39.548;-76.088;2023-11-22T11:28:11;9;7;
31330;PMS5003;34067;39.548;-76.088;2023-11-22T11:30:40;9;7;
31330;PMS5003;34067;39.548;-76.088;2023-11-22T11:33:11;8;8;
31330;PMS5003;34067;39.548;-76.088;2023-11-22T11:35:42;6;5;
31330;PMS5003;34067;39.548;-76.088;2023-11-22T11:38:10;7;7;
31330;PMS5003;34067;39.548;-76.088;2023-11-22T11:40:40;10;7;
31330;PMS5003;34067;39.548;-76.088;2023-11-22T11:43:09;6;6;
31330;PMS5003;34067;39.548;-76.088;2023-11-22T11:45:37;8;7;
31330;PMS5003;34067;39.548;-76.088;2023-11-22T11:48:06;8;7;
31330;PMS5003;34067;39.548;-76.088;2023-11-22T11:50:34;7;6;
31330;PMS5003;34067;39.548;-76.088;2023-11-22T11:53:02;8;7;
31330;PMS5003;34067;39.548;-76.088;2023-11-22T11:55:31;10;8;
31330;PMS5003;34067;39.548;-76.088;2023-11-22T11:58:02;8;7;
31330;PMS5003;34067;39.548;-76.088;2023-11-22T12:00:32;12;10;
31330;PMS5003;34067;39.548;-76.088;2023-11-22T12:03:00;12;9;
31330;PMS5003;34067;39.548;-76.088;2023-11-22T12:05:28;10;9;
31330;PMS5003;34067;39.548;-76.088;2023-11-22T12:07:56;13;9;
31330;PMS5003;34067;39.548;-76.088;2023-11-22T12:10:24;9;8;
31330;PMS5003;34067;39.548;-76.088;2023-11-22T12:12:52;11;10;
31330;PMS5003;34067;39.548;-76.088;2023-11-22T12:15:20;9;8;
31330;PMS5003;34067;39.548;-76.088;2023-11-22T12:17:48;10;9;
31330;PMS5003;34067;39.548;-76.088;2023-11-22T12:20:16;9;8;
31330;PMS5003;34067;39.548;-76.088;2023-11-22T12:22:44;9;8;
31330;PMS5003;34067;39.548;-76.088;2023-11-22T12:25:13;9;8;
31330;PMS5003;34067;39.548;-76.088;2023-11-22T12:27:41;6;5;
31330;PMS5003;34067;39.548;-76.088;2023-11-22T12:30:26;12;9;
31330;PMS5003;34067;39.548;-76.088;2023-11-22T12:32:55;10;9;
31330;PMS5003;34067;39.548;-76.088;2023-11-22T12:35:23;6;6;
31330;PMS5003;34067;39.548;-76.088;2023-11-22T12:37:51;8;7;
31330;PMS5003;34067;39.548;-76.088;2023-11-22T12:40:20;7;6;
31330;PMS5003;34067;39.548;-76.088;2023-11-22T12:42:49;10;9;
31330;PMS5003;34067;39.548;-76.088;2023-11-22T12:45:19;9;8;
31330;PMS5003;34067;39.548;-76.088;2023-11-22T12:47:48;8;8;
31330;PMS5003;34067;39.548;-76.088;2023-11-22T12:50:33;11;11;
31330;PMS5003;34067;39.548;-76.088;2023-11-22T12:53:09;7;6;
31330;PMS5003;34067;39.548;-76.088;2023-11-22T12:55:38;10;9;
31330;PMS5003;34067;39.548;-76.088;2023-11-22T12:58:09;9;8;
31330;PMS5003;34067;39.548;-76.088;2023-11-22T13:00:37;8;7;
31330;PMS5003;34067;39.548;-76.088;2023-11-22T13:03:05;11;11;
31330;PMS5003;34067;39.548;-76.088;2023-11-22T13:05:33;13;11;
31330;PMS5003;34067;39.548;-76.088;2023-11-22T13:08:01;13;11;
31330;PMS5003;34067;39.548;-76.088;2023-11-22T13:10:29;10;8;
31330;PMS5003;34067;39.548;-76.088;2023-11-22T13:12:58;10;8;
31330;PMS5003;34067;39.548;-76.088;2023-11-22T13:15:26;12;9;
31330;PMS5003;34067;39.548;-76.088;2023-11-22T13:17:54;11;9;
31330;PMS5003;34067;39.548;-76.088;2023-11-22T13:20:23;8;8;
31330;PMS5003;34067;39.548;-76.088;2023-11-22T13:22:51;12;8;
31330;PMS5003;34067;39.548;-76.088;2023-11-22T13:25:19;10;10;
31330;PMS5003;34067;39.548;-76.088;2023-11-22T13:27:47;10;10;
31330;PMS5003;34067;39.548;-76.088;2023-11-22T13:30:15;13;10;
31330;PMS5003;34067;39.548;-76.088;2023-11-22T13:32:44;11;10;
31330;PMS5003;34067;39.548;-76.088;2023-11-22T13:35:12;10;9;
31330;PMS5003;34067;39.548;-76.088;2023-11-22T13:37:41;12;11;
31330;PMS5003;34067;39.548;-76.088;2023-11-22T13:40:10;10;9;
31330;PMS5003;34067;39.548;-76.088;2023-11-22T13:42:38;10;9;
31330;PMS5003;34067;39.548;-76.088;2023-11-22T13:45:06;14;11;
31330;PMS5003;34067;39.548;-76.088;2023-11-22T13:47:34;12;8;
31330;PMS5003;34067;39.548;-76.088;2023-11-22T13:50:03;10;9;
31330;PMS5003;34067;39.548;-76.088;2023-11-22T13:52:31;12;9;
31330;PMS5003;34067;39.548;-76.088;2023-11-22T13:54:59;9;8;
31330;PMS5003;34067;39.548;-76.088;2023-11-22T13:57:28;11;10;
31330;PMS5003;34067;39.548;-76.088;2023-11-22T13:59:58;12;10;
31330;PMS5003;34067;39.548;-76.088;2023-11-22T14:02:26;11;11;
31330;PMS5003;34067;39.548;-76.088;2023-11-22T14:04:54;11;10;
31330;PMS5003;34067;39.548;-76.088;2023-11-22T14:07:21;13;9;
31330;PMS5003;34067;39.548;-76.088;2023-11-22T14:09:49;12;10;
31330;PMS5003;34067;39.548;-76.088;2023-11-22T14:12:17;13;10;
31330;PMS5003;34067;39.548;-76.088;2023-11-22T14:14:45;10;8;
31330;PMS5003;34067;39.548;-76.088;2023-11-22T14:17:12;11;11;
31330;PMS5003;34067;39.548;-76.088;2023-11-22T14:19:41;13;10;
31330;PMS5003;34067;39.548;-76.088;2023-11-22T14:22:09;12;12;
31330;PMS5003;34067;39.548;-76.088;2023-11-22T14:24:37;12;11;
31330;PMS5003;34067;39.548;-76.088;2023-11-22T14:27:05;12;12;
31330;PMS5003;34067;39.548;-76.088;2023-11-22T14:29:33;12;10;
31330;PMS5003;34067;39.548;-76.088;2023-11-22T14:32:01;11;9;
31330;PMS5003;34067;39.548;-76.088;2023-11-22T14:34:29;10;9;
31330;PMS5003;34067;39.548;-76.088;2023-11-22T14:36:57;9;9;
31330;PMS5003;34067;39.548;-76.088;2023-11-22T14:39:25;13;9;
31330;PMS5003;34067;39.548;-76.088;2023-11-22T14:41:53;13;10;
31330;PMS5003;34067;39.548;-76.088;2023-11-22T14:44:21;10;9;
31330;PMS5003;34067;39.548;-76.088;2023-11-22T14:46:48;13;11;
31330;PMS5003;34067;39.548;-76.088;2023-11-22T14:49:16;9;8;
31330;PMS5003;34067;39.548;-76.088;2023-11-22T14:51:44;15;12;
31330;PMS5003;34067;39.548;-76.088;2023-11-22T14:54:12;13;11;
31330;PMS5003;34067;39.548;-76.088;2023-11-22T14:56:40;10;9;
31330;PMS5003;34067;39.548;-76.088;2023-11-22T14:59:08;13;11;
31330;PMS5003;34067;39.548;-76.088;2023-11-22T15:01:35;10;9;
31330;PMS5003;34067;39.548;-76.088;2023-11-22T15:04:03;13;10;
31330;PMS5003;34067;39.548;-76.088;2023-11-22T15:06:32;10;9;
31330;PMS5003;34067;39.548;-76.088;2023-11-22T15:09:00;18;17;
31330;PMS5003;34067;39.548;-76.088;2023-11-22T15:11:28;13;12;
31330;PMS5003;34067;39.548;-76.088;2023-11-22T15:13:56;10;10;
31330;PMS5003;34067;39.548;-76.088;2023-11-22T15:16:23;13;12;
31330;PMS5003;34067;39.548;-76.088;2023-11-22T15:18:51;11;9;
31330;PMS5003;34067;39.548;-76.088;2023-11-22T15:21:19;11;11;
31330;PMS5003;34067;39.548;-76.088;2023-11-22T15:23:47;9;9;
31330;PMS5003;34067;39.548;-76.088;2023-11-22T15:26:16;14;12;
31330;PMS5003;34067;39.548;-76.088;2023-11-22T15:28:44;12;10;
31330;PMS5003;34067;39.548;-76.088;2023-11-22T15:31:14;10;9;
31330;PMS5003;34067;39.548;-76.088;2023-11-22T15:33:42;9;8;
31330;PMS5003;34067;39.548;-76.088;2023-11-22T15:36:10;10;8;
31330;PMS5003;34067;39.548;-76.088;2023-11-22T15:38:37;10;9;
31330;PMS5003;34067;39.548;-76.088;2023-11-22T15:41:06;10;10;
31330;PMS5003;34067;39.548;-76.088;2023-11-22T15:43:33;14;11;
31330;PMS5003;34067;39.548;-76.088;2023-11-22T15:46:01;12;10;
31330;PMS5003;34067;39.548;-76.088;2023-11-22T15:48:29;12;11;
31330;PMS5003;34067;39.548;-76.088;2023-11-22T15:50:57;8;8;
31330;PMS5003;34067;39.548;-76.088;2023-11-22T15:53:25;11;9;
31330;PMS5003;34067;39.548;-76.088;2023-11-22T15:55:53;12;11;
31330;PMS5003;34067;39.548;-76.088;2023-11-22T15:58:20;11;10;
31330;PMS5003;34067;39.548;-76.088;2023-11-22T16:00:48;14;12;
31330;PMS5003;34067;39.548;-76.088;2023-11-22T16:03:16;7;7;
31330;PMS5003;34067;39.548;-76.088;2023-11-22T16:05:44;7;6;
31330;PMS5003;34067;39.548;-76.088;2023-11-22T16:08:12;7;7;
31330;PMS5003;34067;39.548;-76.088;2023-11-22T16:10:40;12;10;
31330;PMS5003;34067;39.548;-76.088;2023-11-22T16:13:08;12;11;
31330;PMS5003;34067;39.548;-76.088;2023-11-22T16:15:36;12;10;
31330;PMS5003;34067;39.548;-76.088;2023-11-22T16:18:03;17;14;
31330;PMS5003;34067;39.548;-76.088;2023-11-22T16:20:31;14;12;